createdAt,value
2018-07-28T00:00:01.902Z,26.88
2018-07-28T00:01:01.894Z,26.93
2018-07-28T00:02:01.883Z,26.91
2018-07-28T00:03:01.872Z,26.92
2018-07-28T00:04:01.868Z,26.93
2018-07-28T00:05:01.856Z,26.83
2018-07-28T00:06:01.851Z,26.88
2018-07-28T00:07:01.835Z,26.86
2018-07-28T00:08:01.825Z,26.86
2018-07-28T00:09:01.821Z,26.82
2018-07-28T00:10:01.804Z,26.88
2018-07-28T00:11:01.792Z,26.88
2018-07-28T00:12:01.784Z,26.83
2018-07-28T00:13:01.773Z,26.81
2018-07-28T00:14:01.763Z,26.81
2018-07-28T00:15:01.753Z,26.88
2018-07-28T00:16:01.747Z,26.82
2018-07-28T00:17:01.735Z,26.73
2018-07-28T00:18:01.734Z,26.81
2018-07-28T00:19:01.721Z,26.79
2018-07-28T00:20:01.707Z,26.79
2018-07-28T00:21:01.699Z,26.81
2018-07-28T00:22:01.692Z,26.74
2018-07-28T00:23:01.674Z,26.73
2018-07-28T00:24:01.664Z,26.66
2018-07-28T00:25:01.654Z,26.71
2018-07-28T00:26:01.645Z,26.68
2018-07-28T00:27:01.637Z,26.68
2018-07-28T00:28:01.624Z,26.66
2018-07-28T00:29:01.617Z,26.70
2018-07-28T00:30:01.606Z,26.64
2018-07-28T00:31:01.596Z,26.55
2018-07-28T00:32:01.586Z,26.63
2018-07-28T00:33:01.575Z,26.56
2018-07-28T00:34:01.564Z,26.60
2018-07-28T00:35:01.555Z,26.55
2018-07-28T00:36:01.545Z,26.52
2018-07-28T00:37:01.535Z,26.59
2018-07-28T00:38:01.534Z,26.55
2018-07-28T00:39:01.545Z,26.51
2018-07-28T00:40:01.506Z,26.49
2018-07-28T00:41:01.497Z,26.41
2018-07-28T00:42:01.485Z,26.39
2018-07-28T00:43:01.480Z,26.41
2018-07-28T00:44:01.466Z,26.42
2018-07-28T00:45:01.464Z,26.42
2018-07-28T00:46:01.446Z,26.37
2018-07-28T00:47:01.442Z,26.42
2018-07-28T00:48:01.426Z,26.39
2018-07-28T00:49:01.417Z,26.33
2018-07-28T00:50:01.414Z,26.30
2018-07-28T00:51:01.396Z,26.29
2018-07-28T00:52:01.394Z,26.27
2018-07-28T00:53:01.382Z,26.27
2018-07-28T00:54:01.366Z,26.18
2018-07-28T00:55:01.357Z,26.27
2018-07-28T00:56:01.346Z,26.19
2018-07-28T00:57:01.338Z,26.16
2018-07-28T00:58:01.334Z,26.15
2018-07-28T00:59:01.315Z,26.18
2018-07-28T01:00:01.309Z,26.18
2018-07-28T01:01:01.296Z,26.15
2018-07-28T01:02:01.286Z,26.10
2018-07-28T01:03:01.277Z,26.11
2018-07-28T01:04:01.264Z,26.13
2018-07-28T01:05:01.261Z,26.10
2018-07-28T01:06:01.246Z,26.06
2018-07-28T01:07:01.235Z,26.06
2018-07-28T01:08:01.244Z,25.98
2018-07-28T01:09:01.216Z,26.01
2018-07-28T01:10:01.222Z,26.01
2018-07-28T01:11:01.196Z,25.99
2018-07-28T01:12:01.184Z,26.01
2018-07-28T01:13:01.184Z,26.03
2018-07-28T01:14:01.165Z,26.01
2018-07-28T01:15:01.152Z,25.95
2018-07-28T01:16:01.152Z,26.01
2018-07-28T01:17:01.136Z,25.98
2018-07-28T01:18:01.120Z,26.01
2018-07-28T01:19:01.112Z,25.91
2018-07-28T01:20:01.101Z,25.98
2018-07-28T01:21:01.093Z,25.98
2018-07-28T01:22:01.082Z,25.93
2018-07-28T01:23:01.070Z,25.99
2018-07-28T01:24:01.061Z,25.93
2018-07-28T01:25:01.061Z,25.95
2018-07-28T01:26:01.039Z,25.92
2018-07-28T01:27:01.028Z,25.92
2018-07-28T01:28:01.027Z,25.89
2018-07-28T01:29:01.015Z,25.89
2018-07-28T01:30:00.998Z,25.77
2018-07-28T01:31:00.989Z,25.91
2018-07-28T01:32:00.979Z,25.80
2018-07-28T01:33:00.968Z,25.85
2018-07-28T01:34:00.956Z,25.81
2018-07-28T01:35:00.948Z,25.80
2018-07-28T01:36:00.937Z,25.77
2018-07-28T01:37:00.926Z,25.80
2018-07-28T01:38:00.917Z,25.71
2018-07-28T01:39:00.906Z,25.74
2018-07-28T01:40:00.896Z,25.77
2018-07-28T01:41:00.887Z,25.73
2018-07-28T01:42:00.894Z,25.74
2018-07-28T01:43:00.864Z,25.77
2018-07-28T01:44:00.851Z,25.66
2018-07-28T01:45:00.845Z,25.77
2018-07-28T01:46:00.832Z,25.76
2018-07-28T01:47:00.831Z,25.77
2018-07-28T01:48:00.811Z,25.73
2018-07-28T01:49:00.802Z,25.71
2018-07-28T01:50:00.790Z,25.73
2018-07-28T01:51:00.782Z,25.66
2018-07-28T01:52:00.769Z,25.77
2018-07-28T01:53:00.760Z,25.74
2018-07-28T01:54:00.748Z,25.76
2018-07-28T01:55:00.740Z,25.67
2018-07-28T01:56:00.729Z,25.71
2018-07-28T01:57:00.719Z,25.62
2018-07-28T01:58:00.712Z,25.63
2018-07-28T01:59:00.696Z,25.59
2018-07-28T02:00:00.688Z,25.68
2018-07-28T02:01:00.680Z,25.59
2018-07-28T02:02:00.667Z,25.66
2018-07-28T02:03:00.857Z,25.63
2018-07-28T02:04:00.647Z,25.54
2018-07-28T02:05:00.635Z,25.54
2018-07-28T02:06:00.624Z,25.54
2018-07-28T02:07:00.613Z,25.59
2018-07-28T02:08:00.604Z,25.58
2018-07-28T02:09:00.591Z,25.59
2018-07-28T02:10:00.586Z,25.56
2018-07-28T02:11:00.570Z,25.49
2018-07-28T02:12:00.560Z,25.51
2018-07-28T02:13:00.549Z,25.56
2018-07-28T02:14:00.536Z,25.51
2018-07-28T02:15:00.530Z,25.46
2018-07-28T02:16:00.517Z,25.52
2018-07-28T02:17:00.514Z,25.43
2018-07-28T02:18:00.494Z,25.43
2018-07-28T02:19:00.485Z,25.41
2018-07-28T02:20:00.474Z,25.40
2018-07-28T02:21:00.464Z,25.44
2018-07-28T02:22:00.453Z,25.44
2018-07-28T02:23:00.442Z,25.41
2018-07-28T02:24:00.432Z,25.39
2018-07-28T02:25:00.421Z,25.36
2018-07-28T02:26:00.415Z,25.25
2018-07-28T02:27:00.400Z,25.24
2018-07-28T02:28:00.391Z,25.25
2018-07-28T02:29:00.378Z,25.29
2018-07-28T02:30:00.376Z,25.25
2018-07-28T02:31:00.359Z,25.26
2018-07-28T02:32:00.349Z,25.26
2018-07-28T02:33:00.336Z,25.36
2018-07-28T02:34:00.328Z,25.30
2018-07-28T02:35:00.317Z,25.25
2018-07-28T02:36:00.312Z,25.22
2018-07-28T02:37:00.294Z,25.24
2018-07-28T02:38:00.282Z,25.09
2018-07-28T02:39:00.272Z,25.21
2018-07-28T02:40:00.261Z,25.04
2018-07-28T02:41:00.251Z,25.01
2018-07-28T02:42:00.240Z,25.11
2018-07-28T02:43:00.231Z,25.03
2018-07-28T02:44:00.219Z,25.03
2018-07-28T02:45:00.219Z,25.00
2018-07-28T02:46:00.198Z,25.03
2018-07-28T02:47:00.187Z,24.97
2018-07-28T02:48:00.183Z,24.86
2018-07-28T02:49:00.166Z,24.97
2018-07-28T02:50:00.154Z,24.93
2018-07-28T02:51:00.146Z,24.86
2018-07-28T02:52:00.134Z,24.86
2018-07-28T02:53:00.123Z,24.86
2018-07-28T02:54:00.117Z,24.88
2018-07-28T02:55:00.102Z,24.96
2018-07-28T02:56:00.090Z,24.88
2018-07-28T02:57:00.080Z,24.84
2018-07-28T02:58:00.080Z,24.82
2018-07-28T02:59:00.062Z,24.69
2018-07-28T03:00:00.063Z,24.71
2018-07-28T03:01:00.039Z,24.66
2018-07-28T03:02:00.025Z,24.63
2018-07-28T03:03:00.025Z,24.66
2018-07-28T03:04:00.007Z,24.69
2018-07-28T03:04:59.997Z,24.75
2018-07-28T03:05:59.991Z,24.75
2018-07-28T03:06:59.971Z,24.71
2018-07-28T03:07:59.966Z,24.66
2018-07-28T03:08:59.951Z,24.65
2018-07-28T03:09:59.940Z,24.68
2018-07-28T03:10:59.926Z,24.63
2018-07-28T03:11:59.916Z,24.55
2018-07-28T03:12:59.903Z,24.59
2018-07-28T03:13:59.893Z,24.62
2018-07-28T03:14:59.881Z,24.68
2018-07-28T03:15:59.872Z,24.63
2018-07-28T03:16:59.861Z,24.66
2018-07-28T03:17:59.852Z,24.62
2018-07-28T03:18:59.838Z,24.63
2018-07-28T03:19:59.827Z,24.61
2018-07-28T03:20:59.817Z,24.62
2018-07-28T03:21:59.804Z,24.55
2018-07-28T03:22:59.794Z,24.62
2018-07-28T03:23:59.785Z,24.69
2018-07-28T03:24:59.771Z,24.62
2018-07-28T03:25:59.761Z,24.58
2018-07-28T03:26:59.758Z,24.58
2018-07-28T03:27:59.738Z,24.66
2018-07-28T03:28:59.728Z,24.65
2018-07-28T03:29:59.717Z,24.58
2018-07-28T03:30:59.710Z,24.68
2018-07-28T03:31:59.695Z,24.66
2018-07-28T03:32:59.683Z,24.63
2018-07-28T03:33:59.672Z,24.65
2018-07-28T03:34:59.671Z,24.51
2018-07-28T03:35:59.659Z,24.43
2018-07-28T03:36:59.641Z,24.50
2018-07-28T03:37:59.628Z,24.36
2018-07-28T03:38:59.616Z,24.47
2018-07-28T03:39:59.614Z,24.43
2018-07-28T03:40:59.602Z,24.46
2018-07-28T03:41:59.585Z,24.46
2018-07-28T03:42:59.572Z,24.50
2018-07-28T03:43:59.569Z,24.41
2018-07-28T03:44:59.551Z,24.36
2018-07-28T03:45:59.541Z,24.37
2018-07-28T03:46:59.527Z,24.28
2018-07-28T03:47:59.517Z,24.36
2018-07-28T03:48:59.514Z,24.28
2018-07-28T03:49:59.494Z,24.25
2018-07-28T03:50:59.535Z,24.32
2018-07-28T03:51:59.475Z,24.40
2018-07-28T03:52:59.462Z,24.34
2018-07-28T03:53:59.453Z,24.29
2018-07-28T03:54:59.447Z,24.38
2018-07-28T03:55:59.428Z,24.32
2018-07-28T03:56:59.418Z,24.31
2018-07-28T03:57:59.406Z,24.32
2018-07-28T03:58:59.396Z,24.31
2018-07-28T03:59:59.384Z,24.22
2018-07-28T04:00:59.372Z,24.31
2018-07-28T04:01:59.361Z,24.31
2018-07-28T04:02:59.350Z,24.22
2018-07-28T04:03:59.344Z,24.25
2018-07-28T04:04:59.328Z,24.14
2018-07-28T04:05:59.327Z,24.19
2018-07-28T04:06:59.315Z,24.19
2018-07-28T04:07:59.296Z,24.10
2018-07-28T04:08:59.284Z,24.09
2018-07-28T04:09:59.272Z,24.10
2018-07-28T04:10:59.260Z,24.09
2018-07-28T04:11:59.251Z,24.09
2018-07-28T04:12:59.239Z,24.04
2018-07-28T04:13:59.227Z,24.04
2018-07-28T04:14:59.220Z,24.07
2018-07-28T04:15:59.206Z,24.01
2018-07-28T04:16:59.195Z,24.04
2018-07-28T04:17:59.183Z,24.03
2018-07-28T04:18:59.172Z,24.11
2018-07-28T04:19:59.162Z,24.07
2018-07-28T04:20:59.150Z,24.13
2018-07-28T04:21:59.144Z,24.07
2018-07-28T04:22:59.127Z,24.14
2018-07-28T04:23:59.115Z,24.28
2018-07-28T04:24:59.104Z,24.24
2018-07-28T04:25:59.093Z,24.31
2018-07-28T04:26:59.082Z,24.31
2018-07-28T04:27:59.073Z,24.31
2018-07-28T04:28:59.061Z,24.28
2018-07-28T04:29:59.051Z,24.29
2018-07-28T04:30:59.045Z,24.34
2018-07-28T04:31:59.027Z,24.31
2018-07-28T04:32:59.015Z,24.34
2018-07-28T04:33:59.004Z,24.29
2018-07-28T04:34:58.995Z,24.36
2018-07-28T04:35:58.980Z,24.37
2018-07-28T04:36:59.015Z,24.50
2018-07-28T04:37:58.958Z,24.48
2018-07-28T04:38:58.948Z,24.46
2018-07-28T04:39:58.939Z,24.50
2018-07-28T04:40:58.926Z,24.43
2018-07-28T04:41:58.913Z,24.43
2018-07-28T04:42:58.903Z,24.53
2018-07-28T04:43:58.909Z,24.44
2018-07-28T04:44:58.881Z,24.48
2018-07-28T04:45:58.868Z,24.46
2018-07-28T04:46:58.910Z,24.40
2018-07-28T04:47:58.850Z,24.32
2018-07-28T04:48:58.836Z,24.37
2018-07-28T04:49:58.829Z,24.32
2018-07-28T04:50:58.814Z,24.36
2018-07-28T04:51:58.804Z,24.38
2018-07-28T04:52:58.793Z,24.37
2018-07-28T04:53:58.783Z,24.41
2018-07-28T04:54:58.769Z,24.43
2018-07-28T04:55:58.763Z,24.56
2018-07-28T04:56:58.750Z,24.56
2018-07-28T04:57:58.737Z,24.55
2018-07-28T04:58:58.725Z,24.61
2018-07-28T04:59:58.715Z,24.62
2018-07-28T05:00:58.705Z,24.63
2018-07-28T05:01:58.692Z,24.71
2018-07-28T05:02:58.687Z,24.55
2018-07-28T05:03:58.673Z,24.65
2018-07-28T05:04:58.660Z,24.65
2018-07-28T05:05:58.648Z,24.58
2018-07-28T05:06:58.639Z,24.58
2018-07-28T05:07:58.632Z,24.56
2018-07-28T05:08:58.619Z,24.66
2018-07-28T05:09:58.606Z,24.53
2018-07-28T05:10:58.595Z,24.56
2018-07-28T05:11:58.584Z,24.53
2018-07-28T05:12:58.574Z,24.51
2018-07-28T05:13:58.563Z,24.58
2018-07-28T05:14:58.552Z,24.56
2018-07-28T05:15:58.596Z,24.55
2018-07-28T05:16:58.532Z,24.55
2018-07-28T05:17:58.518Z,24.51
2018-07-28T05:18:58.506Z,24.50
2018-07-28T05:19:58.496Z,24.44
2018-07-28T05:20:58.488Z,24.43
2018-07-28T05:21:58.475Z,24.48
2018-07-28T05:22:58.463Z,24.50
2018-07-28T05:23:58.454Z,24.53
2018-07-28T05:24:58.448Z,24.55
2018-07-28T05:25:58.432Z,24.50
2018-07-28T05:26:58.422Z,24.59
2018-07-28T05:27:58.436Z,24.43
2018-07-28T05:28:58.398Z,24.37
2018-07-28T05:29:58.386Z,24.37
2018-07-28T05:30:58.374Z,24.37
2018-07-28T05:31:58.367Z,24.47
2018-07-28T05:32:58.355Z,24.40
2018-07-28T05:33:58.345Z,24.44
2018-07-28T05:34:58.334Z,24.37
2018-07-28T05:35:58.326Z,24.24
2018-07-28T05:36:58.324Z,24.16
2018-07-28T05:37:58.300Z,24.14
2018-07-28T05:38:58.328Z,24.14
2018-07-28T05:39:58.279Z,24.24
2018-07-28T05:40:58.268Z,24.28
2018-07-28T05:41:58.255Z,24.24
2018-07-28T05:42:58.345Z,24.26
2018-07-28T05:43:58.240Z,24.31
2018-07-28T05:44:58.226Z,24.29
2018-07-28T05:45:58.210Z,24.40
2018-07-28T05:46:58.200Z,24.55
2018-07-28T05:47:58.192Z,24.62
2018-07-28T05:48:58.194Z,24.62
2018-07-28T05:49:58.211Z,24.71
2018-07-28T05:50:58.158Z,24.71
2018-07-28T05:51:58.147Z,24.77
2018-07-28T05:52:58.134Z,25.26
2018-07-28T05:53:58.123Z,26.24
2018-07-28T05:54:58.121Z,27.19
2018-07-28T05:55:58.103Z,28.06
2018-07-28T05:56:58.093Z,28.64
2018-07-28T05:57:58.089Z,29.00
2018-07-28T05:58:58.089Z,29.24
2018-07-28T05:59:58.070Z,29.22
2018-07-28T06:00:58.054Z,29.53
2018-07-28T06:01:58.046Z,29.99
2018-07-28T06:02:58.034Z,30.35
2018-07-28T06:03:58.026Z,30.46
2018-07-28T06:04:58.017Z,30.65
2018-07-28T06:05:58.007Z,30.73
2018-07-28T06:06:58.000Z,31.25
2018-07-28T06:07:57.998Z,30.96
2018-07-28T06:08:57.986Z,30.56
2018-07-28T06:09:57.979Z,30.83
2018-07-28T06:10:57.984Z,30.71
2018-07-28T06:11:57.964Z,30.76
2018-07-28T06:12:58.008Z,30.58
2018-07-28T06:13:57.954Z,30.62
2018-07-28T06:14:57.944Z,30.61
2018-07-28T06:15:57.938Z,31.07
2018-07-28T06:16:57.932Z,31.36
2018-07-28T06:17:57.926Z,31.95
2018-07-28T06:18:57.921Z,32.46
2018-07-28T06:20:41.951Z,32.41
2018-07-28T06:21:41.943Z,32.48
2018-07-28T06:22:41.943Z,32.12
2018-07-28T06:23:42.089Z,32.39
2018-07-28T06:24:41.932Z,32.44
2018-07-28T06:25:41.929Z,32.51
2018-07-28T06:26:41.925Z,32.56
2018-07-28T06:27:41.919Z,31.98
2018-07-28T06:28:42.931Z,31.26
2018-07-28T06:29:41.913Z,30.86
2018-07-28T06:30:41.910Z,30.44
2018-07-28T06:31:41.988Z,30.58
2018-07-28T06:32:41.903Z,31.25
2018-07-28T06:33:41.899Z,30.95
2018-07-28T06:34:41.900Z,31.11
2018-07-28T06:35:41.895Z,31.10
2018-07-28T06:36:41.900Z,30.73
2018-07-28T06:37:41.888Z,30.74
2018-07-28T06:38:41.889Z,30.80
2018-07-28T06:39:41.884Z,30.78
2018-07-28T06:40:41.881Z,30.54
2018-07-28T06:41:41.880Z,30.03
2018-07-28T06:42:41.890Z,30.16
2018-07-28T06:43:41.874Z,30.13
2018-07-28T06:44:41.873Z,29.22
2018-07-28T06:46:25.704Z,28.70
2018-07-28T06:47:25.709Z,28.56
2018-07-28T06:49:09.786Z,29.25
2018-07-28T06:50:09.793Z,29.53
2018-07-28T06:51:09.779Z,29.61
2018-07-28T06:52:09.778Z,29.77
2018-07-28T06:53:09.784Z,29.47
2018-07-28T06:54:09.776Z,29.55
2018-07-28T06:55:09.773Z,29.86
2018-07-28T06:56:09.783Z,30.13
2018-07-28T06:57:09.771Z,30.02
2018-07-28T06:58:09.773Z,29.86
2018-07-28T06:59:09.768Z,29.52
2018-07-28T07:00:09.791Z,29.02
2018-07-28T07:01:09.766Z,28.80
2018-07-28T07:02:09.768Z,28.68
2018-07-28T07:03:09.764Z,28.68
2018-07-28T07:04:09.761Z,28.75
2018-07-28T07:05:09.761Z,28.59
2018-07-28T07:06:09.760Z,28.74
2018-07-28T07:07:09.760Z,28.97
2018-07-28T07:08:09.766Z,28.94
2018-07-28T07:09:09.759Z,28.80
2018-07-28T07:10:09.766Z,28.71
2018-07-28T07:11:43.032Z,28.86
2018-07-28T07:12:09.753Z,28.84
2018-07-28T07:13:09.756Z,28.55
2018-07-28T07:14:09.756Z,28.50
2018-07-28T07:15:09.756Z,28.47
2018-07-28T07:16:09.755Z,28.47
2018-07-28T07:17:09.760Z,28.38
2018-07-28T07:18:09.742Z,28.45
2018-07-28T07:19:09.741Z,28.65
2018-07-28T07:20:09.738Z,28.60
2018-07-28T07:21:09.736Z,28.60
2018-07-28T07:22:09.735Z,28.53
2018-07-28T07:23:09.730Z,28.52
2018-07-28T07:24:09.725Z,28.97
2018-07-28T07:25:09.732Z,28.86
2018-07-28T07:26:09.722Z,28.74
2018-07-28T07:27:09.778Z,28.46
2018-07-28T07:28:09.715Z,28.25
2018-07-28T07:29:09.720Z,28.00
2018-07-28T07:30:09.706Z,27.71
2018-07-28T07:31:09.705Z,27.82
2018-07-28T07:32:09.708Z,27.66
2018-07-28T07:33:09.696Z,27.55
2018-07-28T07:34:09.695Z,27.82
2018-07-28T07:35:09.686Z,27.93
2018-07-28T07:36:09.706Z,28.04
2018-07-28T07:37:09.690Z,28.12
2018-07-28T07:38:09.678Z,28.25
2018-07-28T07:39:09.671Z,28.47
2018-07-28T07:40:09.675Z,28.23
2018-07-28T07:41:09.666Z,28.28
2018-07-28T07:42:09.662Z,28.18
2018-07-28T07:43:09.651Z,28.34
2018-07-28T07:44:09.649Z,28.40
2018-07-28T07:45:09.643Z,28.56
2018-07-28T07:46:09.650Z,28.20
2018-07-28T07:47:09.690Z,28.16
2018-07-28T07:48:09.629Z,28.41
2018-07-28T07:49:09.632Z,28.43
2018-07-28T07:50:09.627Z,28.96
2018-07-28T07:51:09.617Z,28.83
2018-07-28T07:52:09.611Z,28.65
2018-07-28T07:53:09.607Z,28.57
2018-07-28T07:54:09.605Z,28.64
2018-07-28T07:55:09.597Z,28.52
2018-07-28T07:56:09.600Z,28.47
2018-07-28T07:57:09.595Z,28.35
2018-07-28T07:58:09.592Z,28.43
2018-07-28T07:59:09.585Z,28.46
2018-07-28T08:00:09.579Z,28.53
2018-07-28T08:01:09.569Z,28.86
2018-07-28T08:02:09.565Z,28.77
2018-07-28T08:03:09.566Z,28.89
2018-07-28T08:04:09.558Z,28.67
2018-07-28T08:05:09.552Z,28.75
2018-07-28T08:06:09.546Z,29.03
2018-07-28T08:07:09.540Z,29.27
2018-07-28T08:08:09.536Z,29.43
2018-07-28T08:09:09.532Z,29.37
2018-07-28T08:10:09.527Z,29.06
2018-07-28T08:11:09.520Z,28.70
2018-07-28T08:12:09.525Z,28.65
2018-07-28T08:13:09.514Z,28.46
2018-07-28T08:14:09.519Z,28.38
2018-07-28T08:15:09.507Z,28.38
2018-07-28T08:16:09.509Z,28.25
2018-07-28T08:17:09.495Z,28.22
2018-07-28T08:18:09.497Z,28.35
2018-07-28T08:19:09.485Z,28.23
2018-07-28T08:20:09.489Z,28.41
2018-07-28T08:21:09.488Z,28.67
2018-07-28T08:22:09.480Z,28.96
2018-07-28T08:23:09.467Z,29.20
2018-07-28T08:24:09.463Z,29.25
2018-07-28T08:25:09.464Z,28.75
2018-07-28T08:26:09.666Z,28.53
2018-07-28T08:27:09.452Z,28.56
2018-07-28T08:28:09.444Z,28.55
2018-07-28T08:29:09.440Z,28.67
2018-07-28T08:30:09.435Z,28.64
2018-07-28T08:31:09.430Z,28.72
2018-07-28T08:32:09.427Z,28.57
2018-07-28T08:33:09.423Z,28.49
2018-07-28T08:34:09.423Z,28.22
2018-07-28T08:35:09.428Z,28.31
2018-07-28T08:36:09.405Z,28.31
2018-07-28T08:37:09.400Z,28.45
2018-07-28T08:38:09.396Z,28.52
2018-07-28T08:39:09.390Z,28.59
2018-07-28T08:40:09.393Z,28.52
2018-07-28T08:41:09.380Z,28.34
2018-07-28T08:42:09.373Z,28.37
2018-07-28T08:43:09.375Z,28.27
2018-07-28T08:44:09.366Z,28.28
2018-07-28T08:45:09.360Z,28.22
2018-07-28T08:46:09.355Z,28.13
2018-07-28T08:47:09.356Z,28.20
2018-07-28T08:48:09.342Z,28.16
2018-07-28T08:49:09.494Z,28.09
2018-07-28T08:50:09.382Z,28.03
2018-07-28T08:51:09.333Z,28.00
2018-07-28T08:52:09.319Z,28.03
2018-07-28T08:53:09.321Z,28.03
2018-07-28T08:54:09.307Z,28.06
2018-07-28T08:55:09.301Z,27.97
2018-07-28T08:56:09.303Z,27.91
2018-07-28T08:57:09.288Z,27.93
2018-07-28T08:58:09.284Z,27.85
2018-07-28T08:59:09.277Z,27.82
2018-07-28T09:00:09.272Z,27.82
2018-07-28T09:01:09.265Z,27.60
2018-07-28T09:02:09.260Z,27.67
2018-07-28T09:03:09.254Z,27.64
2018-07-28T09:04:09.255Z,27.47
2018-07-28T09:05:09.240Z,27.43
2018-07-28T09:06:09.233Z,27.40
2018-07-28T09:07:09.224Z,27.16
2018-07-28T09:08:09.225Z,27.08
2018-07-28T09:09:09.226Z,27.10
2018-07-28T09:10:09.205Z,27.05
2018-07-28T09:11:09.196Z,26.92
2018-07-28T09:12:09.190Z,27.00
2018-07-28T09:13:09.194Z,27.05
2018-07-28T09:14:09.175Z,27.20
2018-07-28T09:15:09.173Z,27.33
2018-07-28T09:16:09.163Z,27.45
2018-07-28T09:17:09.153Z,27.48
2018-07-28T09:18:09.148Z,27.52
2018-07-28T09:19:09.148Z,27.30
2018-07-28T09:20:09.133Z,27.22
2018-07-28T09:21:09.127Z,27.05
2018-07-28T09:22:09.130Z,26.97
2018-07-28T09:23:09.151Z,26.98
2018-07-28T09:24:09.120Z,26.81
2018-07-28T09:25:09.105Z,26.76
2018-07-28T09:26:09.091Z,26.74
2018-07-28T09:27:09.093Z,26.71
2018-07-28T09:28:09.076Z,26.78
2018-07-28T09:29:09.068Z,26.70
2018-07-28T09:30:09.060Z,26.74
2018-07-28T09:31:09.052Z,26.83
2018-07-28T09:32:09.047Z,26.85
2018-07-28T09:33:09.037Z,26.91
2018-07-28T09:34:09.031Z,27.03
2018-07-28T09:35:09.024Z,26.96
2018-07-28T09:36:09.017Z,26.89
2018-07-28T09:37:09.012Z,26.89
2018-07-28T09:38:09.027Z,26.92
2018-07-28T09:39:08.996Z,26.85
2018-07-28T09:40:08.990Z,26.86
2018-07-28T09:41:08.982Z,26.86
2018-07-28T09:42:08.971Z,26.86
2018-07-28T09:43:08.974Z,26.85
2018-07-28T09:44:08.958Z,26.96
2018-07-28T09:45:08.955Z,27.11
2018-07-28T09:46:08.942Z,27.23
2018-07-28T09:47:08.938Z,27.33
2018-07-28T09:48:08.931Z,27.37
2018-07-28T09:49:08.921Z,27.41
2018-07-28T09:50:08.915Z,27.28
2018-07-28T09:51:08.920Z,27.07
2018-07-28T09:52:08.900Z,27.04
2018-07-28T09:53:08.896Z,26.86
2018-07-28T09:54:08.893Z,26.85
2018-07-28T09:55:08.875Z,26.76
2018-07-28T09:56:08.887Z,26.51
2018-07-28T09:57:08.868Z,26.44
2018-07-28T09:58:08.853Z,26.41
2018-07-28T09:59:08.850Z,26.39
2018-07-28T10:00:08.845Z,26.46
2018-07-28T10:01:08.840Z,26.60
2018-07-28T10:02:08.824Z,26.51
2018-07-28T10:03:08.814Z,26.37
2018-07-28T10:04:08.808Z,26.15
2018-07-28T10:05:08.799Z,26.26
2018-07-28T10:06:08.813Z,26.23
2018-07-28T10:07:08.785Z,26.18
2018-07-28T10:08:08.778Z,26.15
2018-07-28T10:09:08.769Z,25.98
2018-07-28T10:10:08.762Z,25.85
2018-07-28T10:11:08.755Z,25.63
2018-07-28T10:12:08.745Z,25.63
2018-07-28T10:13:08.736Z,25.41
2018-07-28T10:14:08.730Z,25.43
2018-07-28T10:15:08.735Z,25.43
2018-07-28T10:16:08.733Z,25.33
2018-07-28T10:17:08.714Z,25.24
2018-07-28T10:18:08.693Z,25.37
2018-07-28T10:19:08.684Z,25.18
2018-07-28T10:20:08.687Z,25.36
2018-07-28T10:21:08.668Z,25.16
2018-07-28T10:22:08.666Z,25.12
2018-07-28T10:23:08.649Z,24.97
2018-07-28T10:24:08.669Z,24.89
2018-07-28T10:25:08.637Z,24.94
2018-07-28T10:26:08.626Z,24.97
2018-07-28T10:27:08.619Z,24.97
2018-07-28T10:28:08.606Z,24.93
2018-07-28T10:29:08.613Z,25.00
2018-07-28T10:30:08.633Z,25.00
2018-07-28T10:31:08.597Z,24.86
2018-07-28T10:32:08.570Z,24.85
2018-07-28T10:33:08.565Z,24.81
2018-07-28T10:34:08.555Z,24.86
2018-07-28T10:35:08.549Z,24.97
2018-07-28T10:36:08.542Z,24.89
2018-07-28T10:37:08.525Z,24.86
2018-07-28T10:38:08.515Z,24.78
2018-07-28T10:39:08.507Z,24.68
2018-07-28T10:40:08.501Z,24.63
2018-07-28T10:41:08.496Z,24.65
2018-07-28T10:42:08.483Z,24.77
2018-07-28T10:43:08.467Z,24.81
2018-07-28T10:44:08.461Z,24.77
2018-07-28T10:45:08.459Z,24.74
2018-07-28T10:46:08.439Z,24.74
2018-07-28T10:47:08.440Z,24.86
2018-07-28T10:48:08.421Z,25.04
2018-07-28T10:49:08.512Z,25.12
2018-07-28T10:50:08.401Z,25.18
2018-07-28T10:51:08.391Z,25.04
2018-07-28T10:52:08.394Z,25.06
2018-07-28T10:53:08.374Z,25.36
2018-07-28T10:54:08.517Z,25.25
2018-07-28T10:55:08.353Z,25.36
2018-07-28T10:56:08.352Z,25.49
2018-07-28T10:57:08.339Z,25.58
2018-07-28T10:58:08.330Z,25.48
2018-07-28T10:59:08.318Z,25.29
2018-07-28T11:00:08.379Z,25.24
2018-07-28T11:01:08.300Z,25.19
2018-07-28T11:02:08.300Z,25.14
2018-07-28T11:03:08.279Z,25.24
2018-07-28T11:04:08.272Z,25.39
2018-07-28T11:05:08.260Z,25.37
2018-07-28T11:06:08.258Z,25.39
2018-07-28T11:07:08.253Z,25.51
2018-07-28T11:08:08.240Z,25.62
2018-07-28T11:09:08.270Z,25.70
2018-07-28T11:10:08.286Z,25.78
2018-07-28T11:11:08.205Z,25.96
2018-07-28T11:12:08.199Z,25.93
2018-07-28T11:13:08.189Z,25.99
2018-07-28T11:14:08.181Z,26.04
2018-07-28T11:15:08.180Z,26.15
2018-07-28T11:16:08.163Z,26.13
2018-07-28T11:17:08.165Z,26.27
2018-07-28T11:18:08.147Z,26.51
2018-07-28T11:19:08.214Z,26.74
2018-07-28T11:20:08.132Z,26.96
2018-07-28T11:21:08.118Z,27.25
2018-07-28T11:22:08.111Z,27.22
2018-07-28T11:23:08.103Z,27.19
2018-07-28T11:24:08.101Z,27.10
2018-07-28T11:25:08.086Z,27.30
2018-07-28T11:26:08.197Z,27.71
2018-07-28T11:27:08.078Z,28.13
2018-07-28T11:28:08.068Z,28.13
2018-07-28T11:29:08.066Z,27.93
2018-07-28T11:30:08.048Z,27.97
2018-07-28T11:31:08.041Z,27.73
2018-07-28T11:32:08.145Z,27.47
2018-07-28T11:33:08.034Z,27.22
2018-07-28T11:34:08.018Z,26.88
2018-07-28T11:35:08.013Z,26.85
2018-07-28T11:36:08.015Z,26.86
2018-07-28T11:37:07.997Z,26.96
2018-07-28T11:38:07.994Z,27.01
2018-07-28T11:39:07.991Z,26.98
2018-07-28T11:40:07.975Z,26.97
2018-07-28T11:41:07.969Z,27.37
2018-07-28T11:42:07.969Z,27.88
2018-07-28T11:43:07.954Z,28.20
2018-07-28T11:44:07.948Z,28.30
2018-07-28T11:45:07.943Z,28.22
2018-07-28T11:46:07.934Z,28.18
2018-07-28T11:47:07.935Z,28.20
2018-07-28T11:48:07.925Z,27.90
2018-07-28T11:49:07.916Z,27.79
2018-07-28T11:50:07.916Z,27.91
2018-07-28T11:51:07.900Z,28.15
2018-07-28T11:52:07.902Z,28.18
2018-07-28T11:53:07.889Z,28.20
2018-07-28T11:54:07.883Z,28.50
2018-07-28T11:55:07.873Z,29.21
2018-07-28T11:56:07.867Z,29.25
2018-07-28T11:57:07.860Z,29.39
2018-07-28T11:58:07.919Z,29.43
2018-07-28T11:59:07.848Z,29.25
2018-07-28T12:00:07.849Z,29.24
2018-07-28T12:01:07.838Z,29.06
2018-07-28T12:02:07.835Z,29.02
2018-07-28T12:03:07.884Z,29.00
2018-07-28T12:04:07.818Z,28.94
2018-07-28T12:05:07.812Z,29.00
2018-07-28T12:06:07.824Z,29.09
2018-07-28T12:07:07.801Z,29.02
2018-07-28T12:08:07.795Z,28.87
2018-07-28T12:09:07.791Z,28.90
2018-07-28T12:10:07.782Z,28.80
2018-07-28T12:11:07.780Z,29.02
2018-07-28T12:12:07.793Z,29.00
2018-07-28T12:13:07.775Z,29.09
2018-07-28T12:14:07.761Z,29.02
2018-07-28T12:15:07.754Z,28.77
2018-07-28T12:16:07.752Z,28.60
2018-07-28T12:17:07.742Z,28.74
2018-07-28T12:18:07.741Z,28.75
2018-07-28T12:19:07.738Z,28.83
2018-07-28T12:20:07.721Z,29.02
2018-07-28T12:21:07.724Z,28.90
2018-07-28T12:22:07.710Z,29.22
2018-07-28T12:23:07.704Z,29.35
2018-07-28T12:24:07.822Z,29.06
2018-07-28T12:25:07.693Z,28.75
2018-07-28T12:26:07.687Z,28.62
2018-07-28T12:27:07.678Z,28.92
2018-07-28T12:28:07.678Z,28.82
2018-07-28T12:29:07.672Z,29.02
2018-07-28T12:30:07.662Z,29.35
2018-07-28T12:31:07.654Z,29.58
2018-07-28T12:32:07.656Z,29.64
2018-07-28T12:33:07.642Z,29.59
2018-07-28T12:34:07.636Z,29.62
2018-07-28T12:35:07.631Z,29.62
2018-07-28T12:36:07.624Z,29.55
2018-07-28T12:37:07.617Z,29.46
2018-07-28T12:38:07.613Z,29.57
2018-07-28T12:39:07.605Z,29.59
2018-07-28T12:40:07.606Z,29.64
2018-07-28T12:41:07.636Z,29.74
2018-07-28T12:42:07.597Z,29.81
2018-07-28T12:43:07.582Z,29.84
2018-07-28T12:44:07.589Z,29.89
2018-07-28T12:45:07.566Z,29.69
2018-07-28T12:46:07.560Z,29.76
2018-07-28T12:47:07.553Z,29.57
2018-07-28T12:48:07.556Z,29.37
2018-07-28T12:49:07.546Z,29.39
2018-07-28T12:50:07.535Z,29.47
2018-07-28T12:51:07.527Z,29.58
2018-07-28T12:52:07.520Z,29.47
2018-07-28T12:53:07.517Z,29.06
2018-07-28T12:54:07.515Z,29.02